Time;durP1;ratioP1;P1;durP2;ratioP2;P2;SDS_P1;SDS_P2;PMS_P1;PMS_P2;Temp;Humidity;BMP_temperature;BMP_pressure;BME280_temperature;BME280_humidity;BME280_pressure;Samples;Min_cycle;Max_cycle;Signal;HPM_P1;HPM_P2
2021/12/09 00:01:04;;;;;;;10.40;7.15;;;3.20;99.90;;;;;;5013014;28;20059;-76
2021/12/09 00:03:33;;;;;;;8.80;6.25;;;3.20;99.90;;;;;;5013538;28;20025;-83
2021/12/09 00:06:00;;;;;;;6.43;4.93;;;3.10;99.90;;;;;;5013724;28;20066;-77
2021/12/09 00:08:28;;;;;;;8.13;5.18;;;3.10;99.90;;;;;;5012535;28;20030;-76
2021/12/09 00:10:57;;;;;;;8.25;5.85;;;3.10;99.90;;;;;;5030760;28;20049;-76
2021/12/09 00:13:24;;;;;;;7.05;5.22;;;3.10;99.90;;;;;;5013356;28;20021;-82
2021/12/09 00:15:50;;;;;;;8.27;5.47;;;3.10;99.90;;;;;;5030354;28;20108;-77
2021/12/09 00:18:16;;;;;;;6.43;4.80;;;3.10;99.90;;;;;;5013376;28;20060;-77
2021/12/09 00:20:42;;;;;;;8.23;4.88;;;3.10;99.90;;;;;;5013028;28;20026;-77
2021/12/09 00:23:08;;;;;;;9.52;5.13;;;3.00;99.90;;;;;;5012936;28;20444;-79
2021/12/09 00:25:35;;;;;;;6.70;4.95;;;3.00;99.90;;;;;;5012939;28;20477;-77
2021/12/09 00:28:01;;;;;;;6.28;4.10;;;3.00;99.90;;;;;;5013161;28;20021;-76
2021/12/09 00:30:29;;;;;;;7.65;4.95;;;3.00;99.90;;;;;;5030010;28;20079;-77
2021/12/09 00:32:54;;;;;;;6.68;4.60;;;3.00;99.90;;;;;;5013649;28;20116;-76
2021/12/09 00:35:26;;;;;;;6.65;4.55;;;3.00;99.90;;;;;;5012585;28;20477;-76
2021/12/09 00:38:04;;;;;;;7.07;5.65;;;2.90;99.90;;;;;;5013584;28;20026;-77
2021/12/09 00:40:30;;;;;;;8.23;5.15;;;3.00;99.90;;;;;;5030499;28;20045;-83
2021/12/09 00:42:56;;;;;;;7.22;4.13;;;2.90;99.90;;;;;;5011046;28;20059;-77
2021/12/09 00:45:22;;;;;;;6.82;4.43;;;2.90;99.90;;;;;;5015109;28;20064;-77
2021/12/09 00:47:48;;;;;;;5.65;4.80;;;2.90;99.90;;;;;;5021614;28;20026;-78
2021/12/09 00:50:15;;;;;;;6.15;3.92;;;2.90;99.90;;;;;;5024878;28;20088;-77
2021/12/09 00:52:41;;;;;;;5.75;4.63;;;2.90;99.90;;;;;;5017180;28;20017;-80
2021/12/09 00:55:08;;;;;;;5.35;3.97;;;2.90;99.90;;;;;;5016979;28;20025;-83
2021/12/09 00:57:35;;;;;;;7.20;4.50;;;2.90;99.90;;;;;;5033546;28;20033;-77
2021/12/09 01:00:10;;;;;;;5.43;4.43;;;2.90;99.90;;;;;;5022119;28;20021;-77
2021/12/09 01:02:36;;;;;;;7.90;4.10;;;2.90;99.90;;;;;;5033378;28;20022;-79
2021/12/09 01:05:02;;;;;;;8.15;4.13;;;2.90;99.90;;;;;;5034249;28;20030;-81
2021/12/09 01:07:28;;;;;;;5.13;4.55;;;2.90;99.90;;;;;;5021830;28;20033;-81
2021/12/09 01:09:54;;;;;;;8.65;4.50;;;2.80;99.90;;;;;;5016616;28;20056;-79
2021/12/09 01:12:19;;;;;;;7.00;4.30;;;2.80;99.90;;;;;;5015569;28;20474;-77
2021/12/09 01:14:45;;;;;;;6.28;4.40;;;2.80;99.90;;;;;;5016153;28;20028;-77
2021/12/09 01:17:10;;;;;;;7.22;4.25;;;2.80;99.90;;;;;;5016760;28;20067;-78
2021/12/09 01:19:38;;;;;;;7.70;4.18;;;2.80;99.90;;;;;;5015256;28;20052;-77
2021/12/09 01:22:04;;;;;;;4.57;3.80;;;2.80;99.90;;;;;;5016923;28;20021;-79
2021/12/09 01:24:30;;;;;;;7.10;3.83;;;2.80;99.90;;;;;;5015742;28;20033;-78
2021/12/09 01:26:57;;;;;;;5.47;4.00;;;2.70;99.90;;;;;;5015765;28;20029;-78
2021/12/09 01:29:32;;;;;;;5.07;4.30;;;2.70;99.90;;;;;;5016489;28;20056;-77
2021/12/09 01:32:02;;;;;;;5.90;5.05;;;2.70;99.90;;;;;;5016057;28;20120;-81
2021/12/09 01:34:28;;;;;;;6.15;5.50;;;2.60;99.90;;;;;;5015871;28;20465;-81
2021/12/09 01:36:54;;;;;;;8.10;5.20;;;2.60;99.90;;;;;;5016394;28;20037;-77
2021/12/09 01:39:21;;;;;;;5.88;4.57;;;2.60;99.90;;;;;;5015434;28;20010;-77
2021/12/09 01:41:47;;;;;;;4.72;4.07;;;2.60;99.90;;;;;;5016167;28;20108;-76
2021/12/09 01:44:13;;;;;;;6.60;4.20;;;2.60;99.90;;;;;;5033715;28;20525;-76
2021/12/09 01:46:39;;;;;;;4.95;4.22;;;2.50;99.90;;;;;;5015130;28;20477;-77
2021/12/09 01:49:04;;;;;;;4.75;4.10;;;2.50;99.90;;;;;;5016301;28;20021;-77
2021/12/09 01:51:30;;;;;;;6.60;3.83;;;2.50;99.90;;;;;;5015130;28;20091;-77
2021/12/09 01:53:56;;;;;;;7.22;4.15;;;2.40;99.90;;;;;;5015273;28;20018;-80
2021/12/09 01:56:24;;;;;;;5.05;3.97;;;2.50;99.90;;;;;;5031868;28;20455;-77
2021/12/09 01:58:52;;;;;;;5.43;4.22;;;2.40;99.90;;;;;;5015685;28;20042;-77
2021/12/09 02:01:18;;;;;;;6.28;4.57;;;2.40;99.90;;;;;;5014617;28;20478;-78
2021/12/09 02:03:44;;;;;;;5.00;3.88;;;2.40;99.90;;;;;;5015663;28;20025;-76
2021/12/09 02:06:10;;;;;;;4.15;3.50;;;2.40;99.90;;;;;;5015561;28;20026;-77
2021/12/09 02:08:35;;;;;;;3.65;3.35;;;2.40;99.90;;;;;;5013510;28;20516;-77
2021/12/09 02:11:01;;;;;;;5.50;3.75;;;2.40;99.90;;;;;;5021879;28;20049;-78
2021/12/09 02:13:28;;;;;;;4.55;3.45;;;2.40;99.90;;;;;;5032922;28;20026;-77
2021/12/09 02:15:55;;;;;;;5.68;3.97;;;2.40;99.90;;;;;;5032439;28;20025;-77
2021/12/09 02:18:22;;;;;;;6.03;3.70;;;2.40;99.90;;;;;;5015223;28;20025;-77
2021/12/09 02:21:05;;;;;;;5.18;3.88;;;2.40;99.90;;;;;;5014860;28;20049;-77
2021/12/09 02:23:30;;;;;;;5.07;3.80;;;2.40;99.90;;;;;;5014826;28;20448;-78
2021/12/09 02:25:56;;;;;;;4.20;3.50;;;2.50;99.90;;;;;;5014643;28;20061;-77
2021/12/09 02:28:21;;;;;;;6.10;3.97;;;2.40;99.90;;;;;;5012793;28;20478;-76
2021/12/09 02:30:47;;;;;;;4.07;3.60;;;2.40;99.90;;;;;;5031583;28;20037;-77
2021/12/09 02:33:13;;;;;;;4.88;3.60;;;2.40;99.90;;;;;;5015182;28;20520;-80
2021/12/09 02:35:38;;;;;;;4.70;3.70;;;2.40;99.90;;;;;;5032257;28;20021;-76
2021/12/09 02:38:05;;;;;;;5.25;3.80;;;2.40;99.90;;;;;;5015205;28;20033;-76
2021/12/09 02:40:33;;;;;;;4.53;3.60;;;2.40;99.90;;;;;;5032361;28;20026;-77
2021/12/09 02:42:58;;;;;;;4.25;3.80;;;2.30;99.90;;;;;;5032166;28;20083;-76
2021/12/09 02:45:24;;;;;;;5.72;3.65;;;2.30;99.90;;;;;;5014717;28;20025;-78
2021/12/09 02:47:50;;;;;;;4.72;3.47;;;2.20;99.90;;;;;;5015195;28;20474;-77
2021/12/09 02:50:15;;;;;;;5.43;3.95;;;2.30;99.90;;;;;;5014003;28;20112;-76
2021/12/09 02:52:41;;;;;;;5.32;4.25;;;2.20;99.90;;;;;;5014589;28;20064;-77
2021/12/09 02:55:07;;;;;;;4.20;3.80;;;2.20;99.90;;;;;;5032968;28;20038;-76
2021/12/09 02:57:33;;;;;;;5.07;3.83;;;2.20;99.90;;;;;;5013240;28;20029;-76
2021/12/09 02:59:58;;;;;;;6.22;4.13;;;2.20;99.90;;;;;;5032482;28;20527;-77
2021/12/09 03:02:24;;;;;;;4.78;4.25;;;2.20;99.90;;;;;;5014625;28;20028;-82
2021/12/09 03:04:52;;;;;;;4.90;4.05;;;2.10;99.90;;;;;;5013651;28;20029;-77
2021/12/09 03:07:24;;;;;;;7.43;5.32;;;2.10;99.90;;;;;;5014309;28;20044;-77
2021/12/09 03:09:54;;;;;;;6.57;5.22;;;2.10;99.90;;;;;;5014184;28;20037;-77
2021/12/09 03:12:24;;;;;;;5.85;4.50;;;2.10;99.90;;;;;;5031178;28;20412;-75
2021/12/09 03:14:50;;;;;;;5.60;4.57;;;2.00;99.90;;;;;;5032299;28;20022;-77
2021/12/09 03:17:16;;;;;;;6.35;4.35;;;2.10;99.90;;;;;;5013508;28;20025;-76
2021/12/09 03:19:42;;;;;;;5.45;4.00;;;2.00;99.90;;;;;;5014078;28;20113;-78
2021/12/09 03:22:08;;;;;;;5.72;4.22;;;2.00;99.90;;;;;;5032286;28;20077;-77
2021/12/09 03:24:33;;;;;;;4.80;3.97;;;2.00;99.90;;;;;;5030759;28;20026;-77
2021/12/09 03:26:59;;;;;;;4.82;3.92;;;2.00;99.90;;;;;;5014391;28;20029;-79
2021/12/09 03:29:27;;;;;;;4.80;3.88;;;2.00;99.90;;;;;;5014024;28;20021;-76
2021/12/09 03:31:56;;;;;;;4.25;3.85;;;2.00;99.90;;;;;;5013722;28;20044;-76
2021/12/09 03:34:24;;;;;;;4.65;3.85;;;2.00;99.90;;;;;;5013802;28;20539;-77
2021/12/09 03:36:50;;;;;;;5.93;4.05;;;1.90;99.90;;;;;;5014605;28;20032;-76
2021/12/09 03:39:19;;;;;;;5.95;4.55;;;1.90;99.90;;;;;;5013347;28;20095;-75
2021/12/09 03:41:52;;;;;;;5.53;4.07;;;1.90;99.90;;;;;;5013767;28;20381;-76
2021/12/09 03:44:18;;;;;;;5.35;4.38;;;1.90;99.90;;;;;;5031438;28;20021;-76
2021/12/09 03:46:44;;;;;;;5.75;4.10;;;1.90;99.90;;;;;;5013571;28;20481;-75
2021/12/09 03:49:10;;;;;;;4.50;3.70;;;1.90;99.90;;;;;;5013895;28;20386;-76
2021/12/09 03:51:36;;;;;;;5.43;4.05;;;1.80;99.90;;;;;;5030648;28;20037;-79
2021/12/09 03:54:06;;;;;;;4.65;3.80;;;1.80;99.90;;;;;;5031196;28;20104;-83
2021/12/09 03:56:34;;;;;;;4.40;3.58;;;1.80;99.90;;;;;;5013220;28;20084;-75
2021/12/09 03:59:00;;;;;;;5.40;4.25;;;1.80;99.90;;;;;;5013798;28;20040;-75
2021/12/09 04:01:26;;;;;;;8.07;3.80;;;1.80;99.90;;;;;;5030060;28;20032;-76
2021/12/09 04:03:52;;;;;;;5.65;3.72;;;1.80;99.90;;;;;;5031447;28;20104;-77
2021/12/09 04:06:18;;;;;;;4.05;3.30;;;1.80;99.90;;;;;;5012924;28;20025;-78
2021/12/09 04:08:44;;;;;;;4.05;3.63;;;1.80;99.90;;;;;;5013341;28;20468;-75
2021/12/09 04:11:10;;;;;;;4.80;3.90;;;1.80;99.90;;;;;;5013100;28;20103;-76
2021/12/09 04:13:37;;;;;;;4.90;4.05;;;1.80;99.90;;;;;;5030171;28;20116;-77
2021/12/09 04:16:04;;;;;;;5.40;3.90;;;1.80;99.90;;;;;;5013530;28;20075;-76
2021/12/09 04:18:30;;;;;;;5.55;4.10;;;1.80;99.90;;;;;;5013159;28;20512;-80
2021/12/09 04:20:56;;;;;;;4.72;3.85;;;1.70;99.90;;;;;;5012275;28;20052;-76
2021/12/09 04:23:22;;;;;;;3.97;3.55;;;1.70;99.90;;;;;;5030794;28;20092;-79
2021/12/09 04:25:47;;;;;;;5.32;4.10;;;1.70;99.90;;;;;;5013395;28;20059;-79
2021/12/09 04:28:13;;;;;;;5.10;4.13;;;1.70;99.90;;;;;;5030575;28;20049;-76
2021/12/09 04:30:40;;;;;;;5.38;3.80;;;1.70;99.90;;;;;;5013083;28;20061;-75
2021/12/09 04:33:06;;;;;;;5.65;3.97;;;1.70;99.90;;;;;;5013477;28;20112;-76
2021/12/09 04:35:31;;;;;;;6.53;4.05;;;1.70;99.90;;;;;;5012016;28;20137;-75
2021/12/09 04:37:57;;;;;;;4.78;3.50;;;1.70;99.90;;;;;;5013351;28;20021;-76
2021/12/09 04:40:22;;;;;;;4.22;3.72;;;1.70;99.90;;;;;;5030326;28;20474;-76
2021/12/09 04:42:48;;;;;;;5.32;3.90;;;1.70;99.90;;;;;;5030138;28;20030;-75
2021/12/09 04:45:14;;;;;;;6.72;3.72;;;1.70;99.90;;;;;;5012888;28;20033;-76
2021/12/09 04:47:40;;;;;;;5.50;3.97;;;1.70;99.90;;;;;;5012820;28;20022;-76
2021/12/09 04:50:07;;;;;;;4.55;4.13;;;1.70;99.90;;;;;;5012450;28;20029;-78
2021/12/09 04:52:33;;;;;;;7.18;4.35;;;1.60;99.90;;;;;;5012643;28;20037;-76
2021/12/09 04:54:59;;;;;;;4.90;3.85;;;1.60;99.90;;;;;;5013139;28;20112;-79
2021/12/09 04:57:24;;;;;;;4.78;3.78;;;1.60;99.90;;;;;;5011889;28;20049;-76
2021/12/09 04:59:51;;;;;;;5.05;3.88;;;1.60;99.90;;;;;;5030836;28;20083;-76
2021/12/09 05:02:31;;;;;;;4.47;3.70;;;1.70;99.90;;;;;;5013048;28;20359;-74
2021/12/09 05:04:57;;;;;;;5.70;3.72;;;1.60;99.90;;;;;;5030248;28;20026;-75
2021/12/09 05:07:23;;;;;;;5.57;3.70;;;1.60;99.90;;;;;;5012488;28;20105;-76
2021/12/09 05:09:52;;;;;;;5.55;4.10;;;1.60;99.90;;;;;;5012561;28;20041;-76
2021/12/09 05:12:21;;;;;;;6.38;3.78;;;1.60;99.90;;;;;;5013181;28;20440;-76
2021/12/09 05:14:47;;;;;;;4.25;3.50;;;1.60;99.90;;;;;;5012761;28;20469;-76
2021/12/09 05:17:15;;;;;;;5.28;3.47;;;1.60;99.90;;;;;;5012005;28;20092;-75
2021/12/09 05:19:41;;;;;;;5.75;4.03;;;1.60;99.90;;;;;;5012892;28;20041;-76
2021/12/09 05:22:06;;;;;;;4.05;3.67;;;1.60;99.90;;;;;;5030764;28;20026;-78
2021/12/09 05:24:36;;;;;;;5.90;5.18;;;1.50;99.90;;;;;;5011693;28;20026;-76
2021/12/09 05:27:02;;;;;;;5.13;3.90;;;1.60;99.90;;;;;;5012675;28;20116;-75
2021/12/09 05:29:33;;;;;;;6.57;4.13;;;1.50;99.90;;;;;;5030184;28;20101;-75
2021/12/09 05:32:08;;;;;;;5.88;4.18;;;1.50;99.90;;;;;;5015012;28;20087;-77
2021/12/09 05:34:39;;;;;;;5.97;4.13;;;1.50;99.90;;;;;;5033698;28;20033;-75
2021/12/09 05:37:06;;;;;;;4.85;3.63;;;1.50;99.90;;;;;;5034140;28;20033;-74
2021/12/09 05:39:32;;;;;;;5.30;4.40;;;1.50;99.90;;;;;;5032828;28;20032;-75
2021/12/09 05:41:59;;;;;;;6.78;4.18;;;1.50;99.90;;;;;;5033833;28;20025;-77
2021/12/09 05:44:24;;;;;;;7.15;4.07;;;1.50;99.90;;;;;;5033182;28;20019;-74
2021/12/09 05:46:51;;;;;;;6.00;3.88;;;1.50;99.90;;;;;;5015306;28;20037;-82
2021/12/09 05:49:16;;;;;;;5.18;3.75;;;1.50;99.90;;;;;;5015803;28;20030;-75
2021/12/09 05:51:43;;;;;;;5.18;4.07;;;1.40;99.90;;;;;;5015625;28;20128;-75
2021/12/09 05:54:10;;;;;;;5.32;4.20;;;1.40;99.90;;;;;;5015523;28;20029;-79
2021/12/09 05:56:36;;;;;;;6.32;3.97;;;1.40;99.90;;;;;;5015651;28;20559;-74
2021/12/09 05:59:03;;;;;;;6.30;3.50;;;1.50;99.90;;;;;;5014998;28;20021;-75
2021/12/09 06:01:29;;;;;;;5.13;3.70;;;1.40;99.90;;;;;;5015295;28;20083;-81
2021/12/09 06:03:54;;;;;;;5.05;3.47;;;1.50;99.90;;;;;;5016059;28;20033;-75
2021/12/09 06:06:20;;;;;;;8.10;4.05;;;1.40;99.90;;;;;;5014987;28;20032;-75
2021/12/09 06:08:46;;;;;;;5.55;3.50;;;1.40;99.90;;;;;;5015704;28;20480;-75
2021/12/09 06:11:13;;;;;;;4.90;3.67;;;1.40;99.90;;;;;;5015067;28;20049;-75
2021/12/09 06:13:40;;;;;;;5.10;3.92;;;1.40;99.90;;;;;;5014841;28;20040;-82
2021/12/09 06:16:07;;;;;;;6.35;4.10;;;1.50;99.90;;;;;;5015500;28;20033;-76
2021/12/09 06:18:33;;;;;;;4.88;3.90;;;1.40;99.90;;;;;;5015160;28;20021;-75
2021/12/09 06:20:59;;;;;;;4.90;3.70;;;1.40;99.90;;;;;;5014661;28;20029;-79
2021/12/09 06:23:25;;;;;;;4.10;3.30;;;1.40;99.90;;;;;;5032840;28;20465;-76
2021/12/09 06:25:51;;;;;;;5.43;3.80;;;1.40;99.90;;;;;;5033312;28;20033;-84
2021/12/09 06:28:18;;;;;;;4.00;3.33;;;1.40;99.90;;;;;;5032512;28;20025;-83
2021/12/09 06:30:48;;;;;;;7.10;4.32;;;1.40;99.90;;;;;;5014839;28;20128;-75
2021/12/09 06:33:14;;;;;;;5.80;4.55;;;1.40;99.90;;;;;;5014657;28;20473;-78
2021/12/09 06:35:39;;;;;;;5.15;3.83;;;1.40;99.90;;;;;;5013678;28;20063;-77
2021/12/09 06:38:10;;;;;;;6.40;4.72;;;1.40;99.90;;;;;;5013964;28;20036;-75
2021/12/09 06:40:36;;;;;;;10.10;5.93;;;1.40;99.90;;;;;;5012054;28;20026;-75
2021/12/09 06:43:02;;;;;;;10.90;5.85;;;1.40;99.90;;;;;;5009283;28;20291;-75
2021/12/09 06:45:27;;;;;;;12.23;6.63;;;1.40;99.90;;;;;;4995226;28;20030;-76
2021/12/09 06:47:54;;;;;;;11.90;6.32;;;1.40;99.90;;;;;;5007339;28;20038;-76
2021/12/09 06:50:21;;;;;;;10.23;6.80;;;1.40;99.90;;;;;;5013048;28;20413;-83
2021/12/09 06:52:46;;;;;;;10.73;6.10;;;1.40;99.90;;;;;;5032220;28;20025;-76
2021/12/09 06:55:14;;;;;;;7.85;4.80;;;1.40;99.90;;;;;;5032031;28;20041;-76
2021/12/09 06:57:42;;;;;;;8.10;5.38;;;1.40;99.90;;;;;;5032286;28;20021;-75
2021/12/09 07:00:20;;;;;;;10.30;4.95;;;1.40;99.90;;;;;;5013701;28;20026;-76
2021/12/09 07:02:46;;;;;;;9.85;4.70;;;1.40;99.90;;;;;;5031828;28;20017;-78
2021/12/09 07:05:13;;;;;;;6.53;4.40;;;1.40;99.90;;;;;;5014577;28;20021;-76
2021/12/09 07:07:39;;;;;;;6.72;4.25;;;1.40;99.90;;;;;;5014329;28;20542;-80
2021/12/09 07:10:08;;;;;;;7.88;4.28;;;1.40;99.90;;;;;;5030364;28;20064;-80
2021/12/09 07:12:38;;;;;;;6.30;3.63;;;1.40;99.90;;;;;;5009096;28;20057;-83
2021/12/09 07:15:07;;;;;;;7.18;4.40;;;1.40;99.90;;;;;;5032720;28;20449;-79
2021/12/09 07:17:33;;;;;;;7.75;4.70;;;1.40;99.90;;;;;;5012809;28;20025;-81
2021/12/09 07:19:59;;;;;;;8.20;3.83;;;1.50;99.90;;;;;;5029871;28;20025;-83
2021/12/09 07:22:25;;;;;;;7.05;3.63;;;1.40;99.90;;;;;;5030971;28;20022;-83
2021/12/09 07:24:51;;;;;;;6.22;3.88;;;1.40;99.90;;;;;;5014052;28;20013;-81
2021/12/09 07:27:16;;;;;;;6.15;3.97;;;1.40;99.90;;;;;;5011697;28;20120;-76
2021/12/09 07:29:43;;;;;;;6.93;3.50;;;1.50;99.90;;;;;;5017052;28;20021;-79
2021/12/09 07:32:09;;;;;;;4.65;3.00;;;1.50;99.90;;;;;;5020737;28;20026;-75
2021/12/09 07:34:34;;;;;;;5.50;3.30;;;1.50;99.90;;;;;;5031110;28;20052;-76
2021/12/09 07:37:04;;;;;;;5.10;3.50;;;1.50;99.90;;;;;;5030708;28;20017;-79
2021/12/09 07:39:31;;;;;;;4.38;3.05;;;1.50;99.90;;;;;;5021592;28;20741;-77
2021/12/09 07:41:56;;;;;;;5.45;3.80;;;1.50;99.90;;;;;;5014016;28;20032;-78
2021/12/09 07:44:23;;;;;;;5.55;3.15;;;1.50;99.90;;;;;;5013452;28;20116;-82
2021/12/09 07:46:51;;;;;;;8.60;4.88;;;1.50;99.90;;;;;;5013822;28;20478;-78
2021/12/09 07:49:16;;;;;;;6.82;4.15;;;1.50;99.90;;;;;;5011233;28;20036;-78
2021/12/09 07:51:42;;;;;;;7.38;5.00;;;1.50;99.90;;;;;;5010236;28;20029;-80
2021/12/09 07:54:07;;;;;;;7.57;4.85;;;1.50;99.90;;;;;;5013357;28;20053;-85
2021/12/09 07:56:36;;;;;;;7.82;4.85;;;1.50;99.90;;;;;;5011315;28;20131;-79
2021/12/09 07:59:03;;;;;;;6.43;4.35;;;1.60;99.90;;;;;;4969795;28;20130;-81
2021/12/09 08:01:57;;;;;;;5.35;3.63;;;1.60;99.90;;;;;;4968913;28;20070;-84
2021/12/09 08:04:22;;;;;;;5.95;3.85;;;1.60;99.90;;;;;;4975123;28;20490;-81
2021/12/09 08:06:48;;;;;;;7.82;4.40;;;1.70;99.90;;;;;;4988247;28;20134;-81
2021/12/09 08:09:14;;;;;;;5.25;4.20;;;1.70;99.90;;;;;;4969452;28;20034;-79
2021/12/09 08:11:41;;;;;;;5.43;4.05;;;1.80;99.90;;;;;;4968996;28;20130;-78
2021/12/09 08:14:10;;;;;;;5.93;4.30;;;1.80;99.90;;;;;;4971529;28;20062;-79
2021/12/09 08:16:37;;;;;;;5.25;4.15;;;1.80;99.90;;;;;;4986389;28;20037;-79
2021/12/09 08:19:11;;;;;;;6.93;4.40;;;1.70;99.90;;;;;;4972943;28;20022;-80
2021/12/09 08:21:37;;;;;;;6.75;4.50;;;1.70;99.90;;;;;;4970469;28;20031;-84
2021/12/09 08:24:09;;;;;;;5.07;3.90;;;1.70;99.90;;;;;;4971624;28;20030;-79
2021/12/09 08:26:36;;;;;;;6.45;4.30;;;1.70;99.90;;;;;;4959422;28;20097;-77
2021/12/09 08:29:04;;;;;;;4.25;3.60;;;1.70;99.90;;;;;;4984416;28;20030;-78
2021/12/09 08:31:33;;;;;;;6.18;4.60;;;1.80;99.90;;;;;;4988636;28;20178;-76
2021/12/09 08:33:59;;;;;;;6.45;4.53;;;1.80;99.90;;;;;;4971280;28;20026;-76
2021/12/09 08:36:24;;;;;;;6.60;4.10;;;1.80;99.90;;;;;;4970052;28;20034;-77
2021/12/09 08:38:50;;;;;;;7.80;3.88;;;1.80;99.90;;;;;;4987511;28;20454;-77
2021/12/09 08:41:18;;;;;;;8.07;4.20;;;1.80;99.90;;;;;;4967731;28;20394;-78
2021/12/09 08:43:45;;;;;;;9.30;4.22;;;1.80;99.90;;;;;;5006539;28;20081;-77
2021/12/09 08:46:11;;;;;;;6.70;3.85;;;1.90;99.90;;;;;;5030107;28;20117;-77
2021/12/09 08:48:36;;;;;;;5.40;3.85;;;1.90;99.90;;;;;;5028927;28;20018;-76
2021/12/09 08:51:02;;;;;;;7.65;4.22;;;2.00;99.90;;;;;;5027147;28;20048;-76
2021/12/09 08:53:28;;;;;;;6.05;3.05;;;2.20;99.90;;;;;;5012513;28;20021;-78
2021/12/09 08:55:54;;;;;;;5.63;4.18;;;2.30;99.90;;;;;;5011587;28;20026;-77
2021/12/09 08:58:21;;;;;;;5.90;3.80;;;2.40;99.90;;;;;;5011876;28;20056;-77
2021/12/09 09:00:49;;;;;;;5.80;3.97;;;2.50;99.90;;;;;;5028716;28;20034;-77
2021/12/09 09:03:15;;;;;;;6.72;4.30;;;2.60;99.90;;;;;;5029952;28;20064;-78
2021/12/09 09:05:42;;;;;;;6.40;4.43;;;2.70;99.90;;;;;;5003048;28;20033;-77
2021/12/09 09:08:08;;;;;;;7.82;3.72;;;2.80;99.90;;;;;;4996125;28;20103;-77
2021/12/09 09:10:37;;;;;;;9.85;4.03;;;2.90;99.90;;;;;;5009407;28;20508;-78
2021/12/09 09:13:03;;;;;;;6.90;3.95;;;3.00;99.90;;;;;;5016011;28;20453;-79
2021/12/09 09:15:31;;;;;;;9.45;4.18;;;3.00;99.90;;;;;;5014805;28;20556;-76
2021/12/09 09:17:58;;;;;;;7.10;4.20;;;3.10;99.90;;;;;;5015323;28;20025;-75
2021/12/09 09:20:27;;;;;;;12.05;4.63;;;3.10;99.90;;;;;;5015696;28;20064;-77
2021/12/09 09:22:53;;;;;;;12.25;5.75;;;3.20;99.90;;;;;;5015717;28;20021;-77
2021/12/09 09:25:22;;;;;;;9.13;4.18;;;3.30;99.90;;;;;;5031630;28;20029;-76
2021/12/09 09:27:49;;;;;;;13.18;5.57;;;3.30;99.90;;;;;;5033019;28;20022;-77
2021/12/09 09:30:18;;;;;;;8.23;4.25;;;3.40;99.90;;;;;;5012799;28;20029;-76
2021/12/09 09:32:45;;;;;;;7.45;4.07;;;3.50;99.90;;;;;;5014662;28;20359;-77
2021/12/09 09:35:11;;;;;;;7.72;4.47;;;3.50;99.90;;;;;;5015901;28;20028;-78
2021/12/09 09:37:37;;;;;;;9.80;4.82;;;3.60;99.90;;;;;;5013465;28;20017;-78
2021/12/09 09:40:08;;;;;;;4.47;3.65;;;3.70;99.90;;;;;;5008654;28;20029;-78
2021/12/09 09:45:08;;;;;;;7.85;4.20;;;3.80;99.90;;;;;;5013126;28;20045;-79
2021/12/09 09:47:34;;;;;;;8.02;4.65;;;3.80;99.90;;;;;;4995569;28;20056;-79
2021/12/09 09:50:00;;;;;;;7.55;3.92;;;3.90;99.90;;;;;;5003535;28;20108;-81
2021/12/09 09:52:26;;;;;;;6.82;4.10;;;3.90;99.90;;;;;;5017564;28;20132;-79
2021/12/09 09:54:54;;;;;;;6.35;4.25;;;4.00;99.90;;;;;;5013393;28;20021;-78
2021/12/09 09:57:20;;;;;;;7.95;4.43;;;4.00;99.90;;;;;;5009145;28;20029;-78
2021/12/09 09:59:46;;;;;;;6.60;3.72;;;4.10;99.90;;;;;;5010493;28;20033;-78
2021/12/09 10:02:13;;;;;;;6.03;4.00;;;4.10;99.90;;;;;;5006829;28;20013;-79
2021/12/09 10:07:08;;;;;;;9.35;5.05;;;4.20;99.90;;;;;;5027851;28;20067;-78
2021/12/09 10:09:34;;;;;;;8.70;4.95;;;4.20;99.90;;;;;;5027680;28;20073;-78
2021/12/09 10:12:01;;;;;;;6.13;4.22;;;4.30;99.90;;;;;;5014453;28;20034;-78
2021/12/09 10:14:33;;;;;;;6.80;4.65;;;4.30;99.90;;;;;;5014528;28;20014;-82
2021/12/09 10:17:10;;;;;;;10.18;4.18;;;4.40;99.90;;;;;;4998238;28;20061;-80
2021/12/09 10:19:39;;;;;;;6.68;4.15;;;4.50;99.90;;;;;;5011987;28;20030;-80
2021/12/09 10:22:12;;;;;;;7.60;4.50;;;4.50;99.90;;;;;;5014946;28;20024;-79
2021/12/09 10:24:39;;;;;;;7.07;4.82;;;4.50;99.90;;;;;;4998313;28;20104;-79
2021/12/09 10:27:07;;;;;;;6.82;4.05;;;4.50;99.90;;;;;;5012747;28;20022;-79
2021/12/09 10:29:42;;;;;;;8.00;4.38;;;4.60;99.90;;;;;;5008639;28;20030;-80
2021/12/09 10:32:11;;;;;;;8.18;4.45;;;4.60;99.90;;;;;;4995573;28;20030;-79
2021/12/09 10:34:41;;;;;;;10.52;4.70;;;4.60;99.90;;;;;;5010989;28;20779;-77
2021/12/09 10:37:09;;;;;;;5.80;4.10;;;4.70;99.90;;;;;;5014030;28;20116;-77
2021/12/09 10:39:41;;;;;;;11.95;5.47;;;4.70;99.90;;;;;;5014255;28;20045;-79
2021/12/09 10:42:38;;;;;;;7.70;4.35;;;4.80;99.90;;;;;;5014219;28;20345;-81
2021/12/09 10:45:14;;;;;;;8.32;4.97;;;4.80;99.90;;;;;;5012048;28;20046;-78
2021/12/09 10:51:13;;;;;;;9.07;4.95;;;4.80;99.90;;;;;;5015965;28;20100;-80
2021/12/09 10:53:47;;;;;;;7.47;4.47;;;4.80;99.90;;;;;;5002947;28;20033;-79
2021/12/09 10:56:31;;;;;;;7.32;4.72;;;4.80;99.90;;;;;;4979320;28;20026;-82
2021/12/09 10:58:57;;;;;;;13.73;5.80;;;4.90;99.90;;;;;;4980318;28;20132;-79
2021/12/09 11:01:24;;;;;;;9.07;5.28;;;4.90;99.90;;;;;;5013339;28;20022;-78
2021/12/09 11:03:58;;;;;;;12.07;5.10;;;4.90;99.90;;;;;;5011929;28;20045;-76
2021/12/09 11:06:32;;;;;;;10.77;5.65;;;4.90;99.90;;;;;;5030076;28;20025;-78
2021/12/09 11:09:00;;;;;;;8.57;5.45;;;4.80;99.90;;;;;;5012206;28;20034;-78
2021/12/09 11:11:33;;;;;;;10.40;6.30;;;4.90;99.90;;;;;;5012852;28;20044;-76
2021/12/09 11:14:15;;;;;;;11.98;6.50;;;4.80;99.90;;;;;;5011616;28;20036;-77
2021/12/09 11:17:13;;;;;;;10.45;6.57;;;4.80;99.90;;;;;;5012882;28;20057;-78
2021/12/09 11:19:47;;;;;;;11.25;5.57;;;4.90;99.90;;;;;;5002137;28;20053;-78
2021/12/09 11:22:19;;;;;;;10.45;5.75;;;4.90;99.90;;;;;;5012959;28;20021;-78
2021/12/09 11:24:48;;;;;;;11.38;6.82;;;4.90;99.90;;;;;;5010320;28;20441;-78
2021/12/09 11:27:22;;;;;;;9.50;6.05;;;4.90;99.90;;;;;;4994397;28;20026;-77
2021/12/09 11:29:52;;;;;;;9.90;6.22;;;5.00;99.90;;;;;;5012864;28;20112;-79
2021/12/09 11:32:32;;;;;;;12.70;6.97;;;5.00;99.90;;;;;;5012390;28;20160;-78
2021/12/09 11:35:17;;;;;;;10.60;6.22;;;5.00;99.90;;;;;;5007151;28;20041;-77
2021/12/09 11:37:52;;;;;;;8.98;5.88;;;5.10;99.90;;;;;;5028653;28;20021;-78
2021/12/09 11:40:46;;;;;;;10.45;6.40;;;5.10;99.90;;;;;;5012424;28;20029;-76
2021/12/09 11:43:19;;;;;;;9.65;6.75;;;5.10;99.90;;;;;;5009324;28;20044;-78
2021/12/09 11:45:46;;;;;;;13.25;6.85;;;5.10;99.90;;;;;;5011824;28;20030;-77
2021/12/09 11:48:13;;;;;;;14.40;8.05;;;5.10;99.90;;;;;;5029453;28;20044;-76
2021/12/09 11:50:43;;;;;;;12.07;7.80;;;5.20;99.90;;;;;;5024884;28;20022;-77
2021/12/09 11:53:12;;;;;;;10.15;6.82;;;5.20;99.90;;;;;;5010803;28;20033;-78
2021/12/09 11:55:47;;;;;;;11.13;7.50;;;5.20;99.90;;;;;;5010444;28;20062;-77
2021/12/09 11:58:31;;;;;;;11.60;6.55;;;5.20;99.90;;;;;;5010566;28;20034;-78
2021/12/09 12:07:14;;;;;;;9.55;5.90;;;5.30;99.90;;;;;;5010646;28;20109;-76
2021/12/09 12:18:38;;;;;;;7.68;5.45;;;5.50;99.90;;;;;;5013333;28;20560;-80
2021/12/09 12:26:50;;;;;;;11.00;7.10;;;5.60;99.90;;;;;;5030213;28;20385;-82
2021/12/09 12:35:03;;;;;;;11.10;6.38;;;5.70;99.90;;;;;;5030184;28;20087;-78
2021/12/09 12:40:38;;;;;;;8.52;6.15;;;5.70;99.90;;;;;;4982240;28;20036;-81
2021/12/09 12:43:11;;;;;;;7.18;6.22;;;5.70;99.90;;;;;;5015992;28;20030;-79
2021/12/09 12:45:56;;;;;;;7.93;5.80;;;5.70;99.90;;;;;;5032073;28;20108;-81
2021/12/09 12:51:18;;;;;;;10.40;5.68;;;5.70;99.90;;;;;;5032038;28;20041;-77
2021/12/09 12:53:45;;;;;;;;;;;5.70;99.90;;;;;;5034162;28;20018;-77
2021/12/09 12:56:15;;;;;;;8.57;5.55;;;5.80;99.90;;;;;;5014501;28;19996;-75
2021/12/09 12:59:14;;;;;;;8.77;5.77;;;5.80;99.90;;;;;;5028032;28;20025;-80
2021/12/09 13:01:59;;;;;;;8.10;4.78;;;5.80;99.90;;;;;;5032259;28;20334;-80
2021/12/09 13:08:07;;;;;;;7.45;5.70;;;5.80;99.90;;;;;;5012941;28;20041;-80
2021/12/09 13:11:06;;;;;;;8.35;5.35;;;5.80;99.90;;;;;;5009613;28;20065;-80
2021/12/09 13:13:55;;;;;;;10.10;5.65;;;5.90;99.90;;;;;;5014840;28;20116;-80
2021/12/09 13:17:02;;;;;;;11.52;6.32;;;5.90;99.90;;;;;;5011553;28;20037;-80
2021/12/09 13:19:48;;;;;;;7.70;5.57;;;5.90;99.90;;;;;;4985219;28;20029;-80
2021/12/09 13:22:37;;;;;;;7.88;5.88;;;6.00;99.90;;;;;;5001660;28;20029;-80
2021/12/09 13:25:24;;;;;;;8.48;7.40;;;6.00;99.90;;;;;;5014704;28;20033;-79
2021/12/09 13:28:01;;;;;;;7.63;5.80;;;6.00;99.90;;;;;;5015751;28;20028;-79
2021/12/09 13:33:27;;;;;;;10.75;5.80;;;6.00;99.90;;;;;;5027753;28;20495;-78
2021/12/09 13:36:09;;;;;;;;;;;6.00;99.90;;;;;;5024900;28;20064;-78
2021/12/09 13:39:10;;;;;;;7.32;5.72;;;6.00;99.90;;;;;;5014860;28;19913;-77
2021/12/09 13:47:21;;;;;;;6.57;5.65;;;6.00;99.90;;;;;;5032692;28;20052;-77
2021/12/09 13:55:24;;;;;;;8.68;6.47;;;6.00;99.90;;;;;;5013098;28;20034;-76
2021/12/09 13:58:02;;;;;;;7.85;4.93;;;6.00;99.90;;;;;;4994815;28;20433;-76
2021/12/09 14:00:33;;;;;;;8.23;5.50;;;6.00;99.90;;;;;;5009729;28;20416;-77
2021/12/09 14:03:08;;;;;;;9.32;6.03;;;6.00;99.90;;;;;;5014522;28;20574;-77